Felanitx, Spain
Current Conditions -  °F | °C
As of 3:00 AM on Friday 21 Nov 2014 (Local Time) from LEPA Reporting Station
Few Clouds Few Clouds  
Wind Chill: 57°   Ceiling: Unl
Heat Index: 57°   Visibility: 6mi
Dew Point: 55°   Wind: 2mph
Humidity: 94%   Direction: 50°NE
Pressure: 30.09"   Gusts: NA
Location:  39.47°N, 3.15°E
Report Text: LEPA 210200Z 05002KT 9999 FEW016 14/13 Q1019 NOSIG
Loading
Personal Weather Stations






























Interactive Weather Map New forecast layout! Learn more

10-Day Weather Forecast

Advertisements
Track Severe Weather on mobile